Time;durP1;ratioP1;P1;durP2;ratioP2;P2;SDS_P1;SDS_P2;PMS_P1;PMS_P2;Temp;Humidity;BMP_temperature;BMP_pressure;BME280_temperature;BME280_humidity;BME280_pressure;Samples;Min_cycle;Max_cycle;Signal;HPM_P1;HPM_P2
2023/03/04 00:02:22;;;;;;;37.15;14.27;;;2.20;99.90;;;1.98;nan;101411.69;4987263;28;20288;-66
2023/03/04 00:04:49;;;;;;;39.80;15.52;;;2.20;99.90;;;1.96;nan;101410.88;4983225;28;20212;-67
2023/03/04 00:07:17;;;;;;;31.40;12.95;;;2.10;99.90;;;1.93;nan;101413.53;4981356;28;20266;-65
2023/03/04 00:09:45;;;;;;;32.00;14.27;;;2.10;99.90;;;1.87;nan;101418.84;4986430;28;20207;-67
2023/03/04 00:12:12;;;;;;;46.65;15.90;;;2.10;99.90;;;1.81;nan;101416.38;4991509;28;20226;-66
2023/03/04 00:14:40;;;;;;;42.58;17.67;;;2.00;99.90;;;1.75;nan;101413.09;4993266;28;20215;-67
2023/03/04 00:17:07;;;;;;;49.15;17.50;;;1.90;99.90;;;1.71;nan;101419.19;4992872;28;20208;-65
2023/03/04 00:19:34;;;;;;;44.20;17.05;;;1.90;99.90;;;1.65;nan;101416.78;4991383;28;20211;-68
2023/03/04 00:22:02;;;;;;;47.08;18.38;;;1.90;99.90;;;1.64;nan;101415.09;4992349;28;20219;-66
2023/03/04 00:24:30;;;;;;;34.78;14.13;;;1.80;99.90;;;1.66;nan;101421.06;4990616;28;20289;-66
2023/03/04 00:26:57;;;;;;;46.88;18.08;;;1.80;99.90;;;1.66;nan;101410.75;4993749;28;20203;-66
2023/03/04 00:29:24;;;;;;;48.67;17.25;;;1.80;99.90;;;1.64;nan;101420.25;4990530;28;20220;-69
2023/03/04 00:31:51;;;;;;;41.00;18.23;;;1.80;99.90;;;1.61;nan;101417.72;4993545;28;20300;-66
2023/03/04 00:34:18;;;;;;;39.30;15.27;;;1.80;99.90;;;1.54;nan;101420.44;4982988;28;20208;-67
2023/03/04 00:36:45;;;;;;;48.20;19.13;;;1.80;99.90;;;1.47;nan;101416.31;4992603;28;20207;-66
2023/03/04 00:39:13;;;;;;;52.60;20.05;;;1.70;99.90;;;1.46;nan;101422.34;4991012;28;20203;-67
2023/03/04 00:41:40;;;;;;;47.20;18.50;;;1.70;99.90;;;1.41;nan;101426.75;4988760;28;20223;-66
2023/03/04 00:44:07;;;;;;;32.85;13.75;;;1.60;99.90;;;1.37;nan;101421.69;4991394;28;20210;-66
2023/03/04 00:46:34;;;;;;;48.35;18.63;;;1.60;99.90;;;1.33;nan;101425.22;4990158;28;20211;-66
2023/03/04 00:49:01;;;;;;;49.85;15.50;;;1.50;99.90;;;1.30;nan;101426.13;4982837;28;20198;-66
2023/03/04 00:51:28;;;;;;;38.28;15.10;;;1.50;99.90;;;1.32;nan;101426.09;4988374;28;20272;-68
2023/03/04 00:53:55;;;;;;;43.35;15.80;;;1.50;99.90;;;1.32;nan;101429.50;4990932;28;20203;-66
2023/03/04 00:56:24;;;;;;;39.50;15.18;;;1.50;99.90;;;1.31;nan;101432.13;4986225;28;20215;-67
2023/03/04 00:58:51;;;;;;;33.35;12.45;;;1.50;99.90;;;1.28;nan;101427.88;4982537;28;20196;-67
2023/03/04 01:01:18;;;;;;;49.92;19.10;;;1.50;99.90;;;1.25;nan;101433.09;4988630;28;20239;-66
2023/03/04 01:03:45;;;;;;;44.78;17.20;;;1.50;99.90;;;1.23;nan;101427.16;4983885;28;20676;-66
2023/03/04 01:06:12;;;;;;;40.70;15.32;;;1.40;99.90;;;1.21;nan;101425.47;4989574;28;20711;-67
2023/03/04 01:08:39;;;;;;;52.08;18.35;;;1.40;99.90;;;1.19;nan;101422.91;4989650;28;20285;-66
2023/03/04 01:11:06;;;;;;;55.65;20.65;;;1.40;99.90;;;1.15;nan;101429.00;4982206;28;20226;-66
2023/03/04 01:13:34;;;;;;;45.67;17.92;;;1.40;99.90;;;1.13;nan;101422.22;4978159;28;21152;-65
2023/03/04 01:16:02;;;;;;;49.83;18.88;;;1.40;99.90;;;1.15;nan;101423.88;4991273;28;20257;-65
2023/03/04 01:18:29;;;;;;;49.47;18.48;;;1.40;99.90;;;1.15;nan;101421.28;4989616;28;20273;-66
2023/03/04 01:20:56;;;;;;;53.70;20.65;;;1.30;99.90;;;1.13;nan;101422.22;4991245;28;20219;-66
2023/03/04 01:23:23;;;;;;;52.35;20.58;;;1.30;99.90;;;1.15;nan;101417.91;4989979;28;20207;-66
2023/03/04 01:25:50;;;;;;;56.00;19.38;;;1.30;99.90;;;1.13;nan;101423.06;4991037;28;20235;-65
2023/03/04 01:28:17;;;;;;;41.33;15.13;;;1.30;99.90;;;1.12;nan;101413.66;4982678;28;20626;-67
2023/03/04 01:30:44;;;;;;;51.65;18.60;;;1.30;99.90;;;1.17;nan;101418.72;4990814;28;20215;-65
2023/03/04 01:33:11;;;;;;;55.35;20.00;;;1.40;99.90;;;1.17;nan;101411.81;4981649;28;20214;-65
2023/03/04 01:35:38;;;;;;;45.65;16.98;;;1.40;99.90;;;1.15;nan;101410.19;4985625;28;20265;-66
2023/03/04 01:38:05;;;;;;;44.13;16.67;;;1.30;99.90;;;1.12;nan;101408.53;4982612;28;20636;-66
2023/03/04 01:40:32;;;;;;;34.83;14.23;;;1.40;99.90;;;1.11;nan;101408.56;4983934;28;20231;-65
2023/03/04 01:42:59;;;;;;;53.92;16.58;;;1.30;99.90;;;1.07;nan;101401.78;4988374;28;20276;-65
2023/03/04 01:45:26;;;;;;;42.28;14.45;;;1.30;99.90;;;1.08;nan;101400.91;4980469;28;20285;-67
2023/03/04 01:47:53;;;;;;;52.65;19.85;;;1.30;99.90;;;1.09;nan;101400.88;4989642;28;20203;-66
2023/03/04 01:50:29;;;;;;;39.95;14.00;;;1.30;99.90;;;1.10;nan;101397.44;4987290;28;20211;-65
2023/03/04 01:52:56;;;;;;;42.55;16.33;;;1.30;99.90;;;1.10;nan;101400.00;4989345;28;20195;-66
2023/03/04 01:55:23;;;;;;;53.20;18.88;;;1.30;99.90;;;1.11;nan;101391.41;4988427;28;20737;-65
2023/03/04 01:57:51;;;;;;;44.15;17.08;;;1.30;99.90;;;1.11;nan;101393.16;4990871;28;20207;-66
2023/03/04 02:00:30;;;;;;;40.20;15.15;;;1.30;99.90;;;1.10;nan;101394.88;4988961;28;20207;-65
2023/03/04 02:03:06;;;;;;;40.70;15.40;;;1.30;99.90;;;1.11;nan;101391.41;4991227;28;20719;-65
2023/03/04 02:05:36;;;;;;;45.08;16.88;;;1.40;99.90;;;1.08;nan;101388.91;4989981;28;20718;-65
2023/03/04 02:08:05;;;;;;;47.63;17.80;;;1.30;99.90;;;1.10;nan;101389.72;4988911;28;20259;-65
2023/03/04 02:10:32;;;;;;;29.33;11.10;;;1.30;99.90;;;1.12;nan;101384.53;4990110;28;20281;-65
2023/03/04 02:13:00;;;;;;;32.92;11.95;;;1.30;99.90;;;1.12;nan;101385.41;4984532;28;20518;-66
2023/03/04 02:15:29;;;;;;;21.65;8.65;;;1.30;99.90;;;1.14;nan;101378.50;4981843;28;20255;-65
2023/03/04 02:17:56;;;;;;;28.90;10.30;;;1.40;99.90;;;1.14;nan;101373.34;5004023;28;20684;-66
2023/03/04 02:20:53;;;;;;;32.38;9.73;;;1.40;99.90;;;1.15;nan;101375.03;4989484;28;20203;-66
2023/03/04 02:23:32;;;;;;;30.98;11.82;;;1.40;99.90;;;1.17;nan;101380.97;4995272;28;20257;-67
2023/03/04 02:26:40;;;;;;;36.25;12.23;;;1.40;99.90;;;1.16;nan;101371.59;4993858;28;20265;-66
2023/03/04 02:29:10;;;;;;;33.55;14.35;;;1.40;99.90;;;1.15;nan;101364.75;4920154;29;20213;-66
2023/03/04 02:31:41;;;;;;;32.25;12.30;;;1.40;99.90;;;1.17;nan;101364.75;4902925;29;20226;-67
2023/03/04 02:34:16;;;;;;;29.15;12.32;;;1.40;99.90;;;1.16;nan;101361.31;4962472;28;20289;-66
2023/03/04 02:36:45;;;;;;;33.53;12.95;;;1.40;99.90;;;1.15;nan;101358.78;4991579;28;20668;-66
2023/03/04 02:39:24;;;;;;;34.13;13.18;;;1.40;99.90;;;1.09;nan;101359.75;4991676;28;20688;-67
2023/03/04 02:41:54;;;;;;;45.13;16.75;;;1.30;99.90;;;1.08;nan;101357.22;4992645;28;20230;-66
2023/03/04 02:44:25;;;;;;;34.58;14.57;;;1.30;99.90;;;1.07;nan;101356.38;4994486;28;20226;-66
2023/03/04 02:46:53;;;;;;;37.85;16.23;;;1.30;99.90;;;1.00;nan;101357.38;4991366;28;20715;-65
2023/03/04 02:49:22;;;;;;;44.95;17.35;;;1.30;99.90;;;0.99;nan;101357.41;4990748;28;20199;-66
2023/03/04 02:52:00;;;;;;;39.08;16.25;;;1.20;99.90;;;0.93;nan;101358.41;4991876;28;20223;-67
2023/03/04 02:54:28;;;;;;;35.17;15.75;;;1.20;99.90;;;0.90;nan;101355.88;4992411;28;20196;-68
2023/03/04 02:57:01;;;;;;;43.47;15.93;;;1.10;99.90;;;0.90;nan;101361.00;4993912;28;20198;-66
2023/03/04 02:59:29;;;;;;;35.50;13.18;;;1.20;99.90;;;0.89;nan;101355.91;4993275;28;20208;-68
2023/03/04 03:01:56;;;;;;;30.10;12.70;;;1.10;99.90;;;0.89;nan;101361.91;4993689;28;20712;-66
2023/03/04 03:04:24;;;;;;;33.75;11.32;;;1.10;99.90;;;0.90;nan;101362.72;4994355;28;20211;-66
2023/03/04 03:06:51;;;;;;;31.92;12.30;;;1.10;99.90;;;0.91;nan;101356.72;4988162;28;20745;-67
2023/03/04 03:09:19;;;;;;;32.67;10.43;;;1.10;99.90;;;0.89;nan;101358.50;4982223;28;20200;-65
2023/03/04 03:11:46;;;;;;;31.85;13.30;;;1.10;99.90;;;0.86;nan;101351.69;4981240;28;20257;-66
2023/03/04 03:14:12;;;;;;;42.25;14.48;;;1.10;99.90;;;0.85;nan;101355.16;4989381;28;20246;-66
2023/03/04 03:16:39;;;;;;;40.65;15.65;;;1.10;99.90;;;0.84;nan;101356.00;4993125;28;20261;-66
2023/03/04 03:19:06;;;;;;;41.33;16.98;;;1.10;99.90;;;0.86;nan;101345.69;4991000;28;20297;-65
2023/03/04 03:21:33;;;;;;;38.97;15.25;;;1.10;99.90;;;0.82;nan;101350.06;4992265;28;20241;-67
2023/03/04 03:24:00;;;;;;;40.75;16.73;;;1.10;99.90;;;0.79;nan;101344.97;4991718;28;20215;-64
2023/03/04 03:26:27;;;;;;;41.30;15.05;;;1.10;99.90;;;0.76;nan;101342.47;4994195;28;20237;-67
2023/03/04 03:28:54;;;;;;;46.15;14.80;;;1.00;99.90;;;0.77;nan;101344.16;4987410;28;20672;-67
2023/03/04 03:31:21;;;;;;;42.05;14.05;;;1.00;99.90;;;0.75;nan;101346.78;4990891;28;20231;-67
2023/03/04 03:33:48;;;;;;;40.70;14.48;;;1.00;99.90;;;0.75;nan;101348.47;4990268;28;20203;-67
2023/03/04 03:36:15;;;;;;;41.90;14.32;;;1.00;99.90;;;0.74;nan;101354.50;4992576;28;20195;-66
2023/03/04 03:38:42;;;;;;;50.63;17.63;;;1.00;99.90;;;0.74;nan;101354.50;4990455;28;20231;-68
2023/03/04 03:41:09;;;;;;;44.67;17.88;;;1.00;99.90;;;0.74;nan;101359.66;4992190;28;20243;-65
2023/03/04 03:43:35;;;;;;;43.08;15.48;;;1.00;99.90;;;0.75;nan;101358.75;4990828;28;20684;-65
2023/03/04 03:46:02;;;;;;;36.28;14.48;;;1.00;99.90;;;0.77;nan;101362.13;4993329;28;20284;-67
2023/03/04 03:48:29;;;;;;;40.65;15.48;;;1.00;99.90;;;0.77;nan;101354.44;4992518;28;20211;-65
2023/03/04 03:50:56;;;;;;;48.55;18.45;;;1.00;99.90;;;0.81;nan;101353.50;4991873;28;20746;-65
2023/03/04 03:53:23;;;;;;;43.00;16.95;;;1.10;99.90;;;0.84;nan;101355.16;4992108;28;20214;-66
2023/03/04 03:55:50;;;;;;;47.10;16.42;;;1.10;99.90;;;0.84;nan;101358.59;4991577;28;20257;-69
2023/03/04 03:58:17;;;;;;;41.42;16.50;;;1.10;99.90;;;0.78;nan;101358.72;4992224;28;20250;-63
2023/03/04 04:00:44;;;;;;;38.03;14.43;;;1.00;99.90;;;0.74;nan;101352.81;4992372;28;20219;-64
2023/03/04 04:03:14;;;;;;;39.10;15.43;;;1.00;99.90;;;0.74;nan;101354.50;4993333;28;20215;-65
2023/03/04 04:05:41;;;;;;;30.40;12.57;;;1.00;99.90;;;0.76;nan;101353.63;4980630;28;20235;-66
2023/03/04 04:08:18;;;;;;;33.45;9.10;;;1.00;99.90;;;0.78;nan;101353.56;5000515;28;20606;-66
2023/03/04 04:10:45;;;;;;;27.90;9.48;;;1.00;99.90;;;0.82;nan;101356.91;4989905;28;20223;-66
2023/03/04 04:13:12;;;;;;;37.63;13.27;;;1.00;99.90;;;0.85;nan;101354.28;4993944;28;20630;-65
2023/03/04 04:15:39;;;;;;;45.13;15.95;;;1.10;99.90;;;0.85;nan;101347.44;4986770;28;20215;-66
2023/03/04 04:18:06;;;;;;;34.08;13.60;;;1.10;99.90;;;0.83;nan;101346.63;4981780;28;20199;-65
2023/03/04 04:20:33;;;;;;;38.80;14.05;;;1.10;99.90;;;0.83;nan;101356.06;4992058;28;20231;-66
2023/03/04 04:23:01;;;;;;;37.55;15.20;;;1.10;99.90;;;0.81;nan;101348.34;4990971;28;20359;-65
2023/03/04 04:25:28;;;;;;;35.08;13.65;;;1.10;99.90;;;0.77;nan;101345.00;4993209;28;20206;-64
2023/03/04 04:27:55;;;;;;;37.65;13.77;;;1.00;99.90;;;0.73;nan;101351.09;4991946;28;20207;-64
2023/03/04 04:30:22;;;;;;;27.67;10.20;;;1.00;99.90;;;0.72;nan;101343.44;4989668;28;20643;-65
2023/03/04 04:32:49;;;;;;;23.80;9.73;;;1.00;99.90;;;0.74;nan;101350.22;4992522;28;20207;-65
2023/03/04 04:35:16;;;;;;;31.60;8.02;;;1.00;99.90;;;0.76;nan;101356.19;4992861;28;20205;-68
2023/03/04 04:37:43;;;;;;;17.75;6.90;;;1.00;99.90;;;0.77;nan;101354.44;4990387;28;20205;-67
2023/03/04 04:40:11;;;;;;;27.17;8.98;;;1.00;99.90;;;0.75;nan;101351.06;4991804;28;20199;-68
2023/03/04 04:42:38;;;;;;;16.83;5.05;;;1.00;99.90;;;0.75;nan;101357.03;5020584;23;20244;-64
2023/03/04 04:45:06;;;;;;;12.15;4.93;;;1.00;99.90;;;0.74;nan;101359.66;4999721;28;20207;-66
2023/03/04 04:47:33;;;;;;;11.70;3.78;;;1.00;99.90;;;0.72;nan;101353.69;5010714;28;20227;-64
2023/03/04 04:50:00;;;;;;;11.40;5.47;;;1.00;99.90;;;0.71;nan;101357.13;5010871;28;20551;-64
2023/03/04 04:52:26;;;;;;;12.90;5.80;;;1.00;99.90;;;0.70;nan;101356.28;5011938;28;20900;-66
2023/03/04 04:54:53;;;;;;;12.88;5.30;;;1.00;99.90;;;0.68;nan;101363.16;5010668;28;20206;-66
2023/03/04 04:57:21;;;;;;;18.20;6.65;;;1.00;99.90;;;0.66;nan;101357.22;5012118;28;20203;-63
2023/03/04 04:59:48;;;;;;;11.57;4.63;;;1.00;99.90;;;0.67;nan;101360.63;5009791;28;20194;-66
2023/03/04 05:02:15;;;;;;;16.08;5.35;;;1.00;99.90;;;0.65;nan;101359.84;5009316;28;20234;-66
2023/03/04 05:04:42;;;;;;;17.98;5.60;;;1.00;99.90;;;0.67;nan;101358.06;5010959;28;20203;-63
2023/03/04 05:07:09;;;;;;;13.88;5.53;;;1.00;99.90;;;0.67;nan;101364.06;5011303;28;20228;-67
2023/03/04 05:09:36;;;;;;;16.45;6.25;;;1.00;99.90;;;0.72;nan;101369.94;5010462;28;20211;-66
2023/03/04 05:12:03;;;;;;;20.95;7.45;;;1.00;99.90;;;0.77;nan;101370.69;5010951;28;20268;-66
2023/03/04 05:14:30;;;;;;;17.08;6.85;;;1.10;99.90;;;0.86;nan;101368.81;5011091;28;20217;-66
2023/03/04 05:16:56;;;;;;;22.63;6.97;;;1.10;99.90;;;0.90;nan;101358.44;5011385;28;20244;-65
2023/03/04 05:19:23;;;;;;;11.40;6.82;;;1.20;99.90;;;0.98;nan;101366.84;5010474;28;20217;-66
2023/03/04 05:21:50;;;;;;;14.38;4.90;;;1.20;99.90;;;1.04;nan;101359.03;5011699;28;20222;-66
2023/03/04 05:24:17;;;;;;;13.38;5.65;;;1.30;99.90;;;1.10;nan;101358.88;5010978;28;20256;-66
2023/03/04 05:26:44;;;;;;;10.52;5.55;;;1.40;99.90;;;1.10;nan;101356.31;5012127;28;20238;-66
2023/03/04 05:29:11;;;;;;;12.38;4.78;;;1.40;99.90;;;1.15;nan;101359.59;5011249;28;20198;-66
2023/03/04 05:31:38;;;;;;;29.90;11.27;;;1.40;99.90;;;1.19;nan;101365.56;5011065;28;20352;-66
2023/03/04 05:34:05;;;;;;;27.05;11.27;;;1.50;99.90;;;1.18;nan;101351.00;5010639;28;20202;-66
2023/03/04 05:36:32;;;;;;;26.77;10.90;;;1.50;99.90;;;1.21;nan;101353.50;5012279;28;20267;-66
2023/03/04 05:38:59;;;;;;;31.38;11.30;;;1.50;99.90;;;1.21;nan;101354.34;5010832;28;20206;-66
2023/03/04 05:41:26;;;;;;;17.25;7.10;;;1.50;99.90;;;1.22;nan;101345.75;5010212;28;20238;-66
2023/03/04 05:43:53;;;;;;;20.45;8.13;;;1.50;99.90;;;1.27;nan;101356.78;5010958;28;20207;-66
2023/03/04 05:46:24;;;;;;;20.40;9.07;;;1.50;99.90;;;1.30;nan;101343.84;5011084;28;20232;-66
2023/03/04 05:48:53;;;;;;;25.10;9.20;;;1.60;99.90;;;1.37;nan;101345.41;5011315;28;20655;-65
2023/03/04 05:51:21;;;;;;;18.80;7.25;;;1.60;99.90;;;1.41;nan;101347.03;5010710;28;20215;-66
2023/03/04 05:53:48;;;;;;;19.08;7.22;;;1.70;99.90;;;1.42;nan;101351.31;5011481;28;20213;-66
2023/03/04 05:56:18;;;;;;;19.05;7.90;;;1.70;99.90;;;1.46;nan;101339.22;5009326;28;20217;-66
2023/03/04 05:58:48;;;;;;;14.50;5.13;;;1.70;99.90;;;1.49;nan;101345.13;5010400;28;20286;-66
2023/03/04 06:01:15;;;;;;;20.60;7.78;;;1.80;99.90;;;1.53;nan;101356.19;4993256;28;20711;-66
2023/03/04 06:03:42;;;;;;;14.63;5.88;;;1.80;99.90;;;1.54;nan;101348.44;5011647;28;20199;-65
2023/03/04 06:06:10;;;;;;;14.55;3.83;;;1.80;99.90;;;1.58;nan;101355.19;5010311;28;20214;-66
2023/03/04 06:08:37;;;;;;;9.13;4.40;;;1.80;99.90;;;1.62;nan;101355.13;5011612;28;20207;-66
2023/03/04 06:11:04;;;;;;;11.85;3.22;;;1.90;99.90;;;1.65;nan;101358.47;5009318;28;20226;-66
2023/03/04 06:13:32;;;;;;;10.93;5.03;;;1.90;99.90;;;1.64;nan;101366.22;5009726;28;21375;-66
2023/03/04 06:16:00;;;;;;;13.20;5.43;;;1.90;99.90;;;1.65;nan;101373.03;5003176;28;20225;-66
2023/03/04 06:18:27;;;;;;;11.25;6.05;;;1.90;99.90;;;1.65;nan;101367.91;5009204;28;20218;-66
2023/03/04 06:20:57;;;;;;;10.10;5.50;;;1.90;99.90;;;1.66;nan;101372.19;5010197;28;20202;-66
2023/03/04 06:23:26;;;;;;;11.93;4.88;;;1.90;99.90;;;1.68;nan;101365.28;5009565;28;20633;-65
2023/03/04 06:25:56;;;;;;;11.93;5.88;;;1.90;99.90;;;1.69;nan;101374.66;4994131;28;20691;-65
2023/03/04 06:28:23;;;;;;;21.77;7.40;;;1.90;99.90;;;1.71;nan;101371.19;5010581;28;20240;-65
2023/03/04 06:30:52;;;;;;;16.20;5.35;;;2.00;99.90;;;1.75;nan;101374.50;5010639;28;20206;-63
2023/03/04 06:33:19;;;;;;;6.70;3.38;;;2.00;99.90;;;1.78;nan;101380.44;4992052;28;20202;-66
2023/03/04 06:35:47;;;;;;;23.80;8.45;;;2.00;99.90;;;1.83;nan;101381.16;5010301;28;20202;-66
2023/03/04 06:38:14;;;;;;;19.42;6.05;;;2.10;99.90;;;1.86;nan;101387.97;5010534;28;20199;-65
2023/03/04 06:40:41;;;;;;;11.90;5.20;;;2.10;99.90;;;1.86;nan;101385.41;5010236;28;20199;-65
2023/03/04 06:43:08;;;;;;;17.02;7.43;;;2.10;99.90;;;1.88;nan;101379.34;5007834;28;20240;-66
2023/03/04 06:45:37;;;;;;;12.55;5.40;;;2.10;99.90;;;1.94;nan;101386.91;5009124;28;20226;-66
2023/03/04 06:48:05;;;;;;;6.40;3.05;;;2.20;99.90;;;2.00;nan;101389.31;5008443;28;20231;-66
2023/03/04 06:50:31;;;;;;;16.48;5.93;;;2.20;99.90;;;2.04;nan;101384.97;5008051;28;20194;-66
2023/03/04 06:52:58;;;;;;;13.38;6.03;;;2.30;99.90;;;2.05;nan;101387.47;5008870;28;20215;-66
2023/03/04 06:55:25;;;;;;;15.13;6.35;;;2.30;99.90;;;2.08;nan;101386.56;5009378;28;20207;-66
2023/03/04 06:57:52;;;;;;;7.60;4.80;;;2.30;99.90;;;2.15;nan;101393.25;5010122;28;20199;-66
2023/03/04 07:00:22;;;;;;;12.98;4.63;;;2.40;99.90;;;2.21;nan;101398.25;5010620;28;20214;-66
2023/03/04 07:02:50;;;;;;;14.95;6.18;;;2.40;99.90;;;2.28;nan;101400.63;5008200;28;20234;-66
2023/03/04 07:05:19;;;;;;;11.55;5.07;;;2.50;99.90;;;2.32;nan;101401.41;5008737;28;20207;-66
2023/03/04 07:07:48;;;;;;;14.15;6.47;;;2.60;99.90;;;2.39;nan;101405.47;5012184;28;20261;-66
2023/03/04 07:10:17;;;;;;;8.50;3.78;;;2.60;99.90;;;2.43;nan;101404.50;5011320;28;20206;-66
2023/03/04 07:12:44;;;;;;;11.35;4.97;;;2.70;99.90;;;2.46;nan;101407.03;4995964;28;20225;-66
2023/03/04 07:15:14;;;;;;;12.07;4.85;;;2.70;99.90;;;2.51;nan;101405.19;5009884;28;20242;-66
2023/03/04 07:17:44;;;;;;;8.27;4.40;;;2.70;99.90;;;2.57;nan;101412.75;5012307;28;20694;-65
2023/03/04 07:20:11;;;;;;;11.90;6.13;;;2.80;99.90;;;2.59;nan;101412.69;5012878;28;20217;-65
2023/03/04 07:22:38;;;;;;;16.40;6.85;;;2.80;99.90;;;2.64;nan;101416.81;5015739;28;20230;-65
2023/03/04 07:25:06;;;;;;;9.55;3.42;;;2.90;99.90;;;2.64;nan;101413.41;5013260;28;20736;-65
2023/03/04 07:27:33;;;;;;;9.32;4.53;;;2.90;99.90;;;2.67;nan;101419.31;5013059;28;20219;-66
2023/03/04 07:30:00;;;;;;;15.55;6.53;;;2.90;99.90;;;2.70;nan;101421.84;5013373;28;20194;-63
2023/03/04 07:32:27;;;;;;;13.60;6.25;;;2.90;99.90;;;2.72;nan;101414.91;5012893;28;20234;-65
2023/03/04 07:34:54;;;;;;;9.40;5.63;;;3.00;99.90;;;2.73;nan;101424.31;5013346;28;20517;-65
2023/03/04 07:37:21;;;;;;;11.85;5.57;;;3.00;99.90;;;2.76;nan;101426.81;5008769;28;20210;-65
2023/03/04 07:39:47;;;;;;;15.98;6.70;;;3.00;99.90;;;2.78;nan;101425.03;5012899;28;20271;-65
2023/03/04 07:42:14;;;;;;;13.93;6.10;;;3.00;99.90;;;2.79;nan;101428.47;5012835;28;20296;-66
2023/03/04 07:44:41;;;;;;;19.35;7.45;;;3.00;99.90;;;2.84;nan;101430.03;5013289;28;20596;-66
2023/03/04 07:47:08;;;;;;;13.73;5.93;;;3.10;99.90;;;2.89;nan;101435.91;5011989;28;20226;-66
2023/03/04 07:49:35;;;;;;;14.75;7.03;;;3.10;99.90;;;2.89;nan;101435.91;5012638;28;20272;-66
2023/03/04 07:52:05;;;;;;;29.65;11.38;;;3.10;99.90;;;2.94;nan;101436.59;5010675;28;20219;-67
2023/03/04 07:54:32;;;;;;;29.20;12.77;;;3.10;99.90;;;3.00;nan;101440.75;5012622;28;20207;-66
2023/03/04 07:56:59;;;;;;;15.50;8.15;;;3.20;99.90;;;3.06;nan;101436.28;5011945;28;20198;-65
2023/03/04 07:59:26;;;;;;;11.27;6.05;;;3.30;99.90;;;3.10;nan;101440.47;5012226;28;20214;-65
2023/03/04 08:01:53;;;;;;;12.85;5.68;;;3.30;99.90;;;3.17;nan;101440.28;5011293;28;20234;-67
2023/03/04 08:04:20;;;;;;;15.48;5.75;;;3.40;99.90;;;3.23;nan;101442.69;5011790;28;20602;-65
2023/03/04 08:06:47;;;;;;;13.82;7.07;;;3.40;99.90;;;3.27;nan;101436.53;5011008;28;20640;-65
2023/03/04 08:09:14;;;;;;;17.73;6.97;;;3.50;99.90;;;3.31;nan;101446.72;5013133;28;20214;-65
2023/03/04 08:11:42;;;;;;;14.35;6.68;;;3.50;99.90;;;3.36;nan;101441.44;5011696;28;20224;-66
2023/03/04 08:14:11;;;;;;;11.77;5.85;;;3.60;99.90;;;3.45;nan;101441.16;5012946;28;20266;-65
2023/03/04 08:16:38;;;;;;;18.50;9.57;;;3.60;99.90;;;3.49;nan;101435.84;5010917;28;20265;-67
2023/03/04 08:19:07;;;;;;;17.25;8.27;;;3.70;99.90;;;3.56;nan;101441.66;5011948;28;20214;-65
2023/03/04 08:21:36;;;;;;;12.65;5.72;;;3.80;99.90;;;3.60;nan;101433.78;5012231;28;20229;-67
2023/03/04 08:24:06;;;;;;;12.40;6.20;;;3.80;99.90;;;3.68;nan;101443.91;4995975;28;20256;-66
2023/03/04 08:26:40;;;;;;;15.13;7.15;;;3.80;99.90;;;3.75;nan;101441.06;4995112;28;20264;-65
2023/03/04 08:29:13;;;;;;;13.18;5.95;;;3.90;99.90;;;3.81;nan;101445.22;4978397;28;20667;-67
2023/03/04 08:31:39;;;;;;;14.30;6.85;;;4.00;99.90;;;3.85;nan;101439.06;5012709;28;20273;-66
2023/03/04 08:34:09;;;;;;;11.35;5.45;;;4.10;99.90;;;3.93;nan;101442.22;5010351;28;20575;-65
2023/03/04 08:36:36;;;;;;;14.95;6.70;;;4.10;99.90;;;4.00;nan;101432.56;5011576;28;20202;-66
2023/03/04 08:39:04;;;;;;;12.20;6.38;;;4.20;99.90;;;4.09;nan;101445.19;5011843;28;20194;-66
2023/03/04 08:41:31;;;;;;;27.58;12.63;;;4.30;99.90;;;4.16;nan;101444.91;4993449;28;20657;-65
2023/03/04 08:43:59;;;;;;;20.02;10.32;;;4.30;99.90;;;4.24;nan;101440.31;5011556;28;20257;-65
2023/03/04 08:46:26;;;;;;;26.70;12.10;;;4.40;99.90;;;4.30;nan;101440.13;5011089;28;20205;-67
2023/03/04 08:48:53;;;;;;;24.75;11.40;;;4.50;99.90;;;4.37;nan;101444.19;5012328;28;20206;-66
2023/03/04 08:51:20;;;;;;;25.10;10.95;;;4.50;99.90;;;4.42;nan;101441.47;5011292;28;20222;-67
2023/03/04 08:53:47;;;;;;;27.45;12.32;;;4.60;99.90;;;4.48;nan;101439.53;5011161;28;20273;-65
2023/03/04 08:56:15;;;;;;;24.02;10.93;;;4.70;99.90;;;4.54;nan;101441.88;5011105;28;20614;-66
2023/03/04 08:58:42;;;;;;;20.75;9.15;;;4.70;99.90;;;4.61;nan;101439.94;5010614;28;20207;-66
2023/03/04 09:01:12;;;;;;;18.52;9.13;;;4.70;99.90;;;4.65;nan;101444.94;5011274;28;20232;-66
2023/03/04 09:03:40;;;;;;;20.33;10.95;;;4.80;99.90;;;4.67;nan;101440.56;5011017;28;20210;-67
2023/03/04 09:06:09;;;;;;;27.48;11.90;;;4.90;99.90;;;4.70;nan;101440.47;5009374;28;20214;-65
2023/03/04 09:08:36;;;;;;;18.63;10.05;;;4.90;99.90;;;4.72;nan;101441.28;5008671;28;20226;-66
2023/03/04 09:11:03;;;;;;;30.33;13.13;;;4.90;99.90;;;4.76;nan;101435.97;5010113;28;20850;-65
2023/03/04 09:13:31;;;;;;;33.22;12.45;;;5.00;99.90;;;4.78;nan;101441.94;5010643;28;20268;-65
2023/03/04 09:15:58;;;;;;;31.40;13.85;;;4.90;99.90;;;4.81;nan;101441.84;4993005;28;20211;-65
2023/03/04 09:18:27;;;;;;;27.30;12.55;;;5.00;99.90;;;4.79;nan;101441.91;5010351;28;20276;-66
2023/03/04 09:20:54;;;;;;;33.47;13.10;;;4.90;99.90;;;4.83;nan;101445.22;5007218;28;20306;-66
2023/03/04 09:23:21;;;;;;;31.98;12.15;;;5.00;99.90;;;4.89;nan;101445.84;5010713;28;20262;-67
2023/03/04 09:25:48;;;;;;;30.23;12.90;;;5.10;99.90;;;4.99;nan;101438.56;4997867;28;20671;-66
2023/03/04 09:28:17;;;;;;;26.90;12.70;;;5.10;99.90;;;5.05;nan;101446.97;5001072;28;20313;-63
2023/03/04 09:30:44;;;;;;;22.23;10.80;;;5.20;99.90;;;5.09;nan;101445.13;5004406;28;20207;-65
2023/03/04 09:33:11;;;;;;;28.80;12.45;;;5.20;99.90;;;5.12;nan;101443.25;5010392;28;20210;-66
2023/03/04 09:35:38;;;;;;;31.98;11.27;;;5.20;99.90;;;5.18;nan;101443.03;5010821;28;20279;-65
2023/03/04 09:38:06;;;;;;;21.85;9.77;;;5.30;99.90;;;5.20;nan;101443.81;5011335;28;20211;-66
2023/03/04 09:40:46;;;;;;;25.33;12.18;;;5.40;99.90;;;5.25;nan;101443.66;4994127;28;20268;-65
2023/03/04 09:43:30;;;;;;;20.10;9.50;;;5.40;99.90;;;5.31;nan;101451.19;5011058;28;20252;-70
2023/03/04 09:46:08;;;;;;;16.02;8.93;;;5.40;99.90;;;5.36;nan;101449.28;5009094;28;20206;-66
2023/03/04 09:48:50;;;;;;;21.17;9.57;;;5.50;99.90;;;5.41;nan;101453.38;4992351;28;20284;-68
2023/03/04 09:51:59;;;;;;;18.75;8.80;;;5.60;99.90;;;5.47;nan;101452.31;5010391;28;20226;-68
2023/03/04 09:54:59;;;;;;;26.00;10.65;;;5.60;99.90;;;5.41;nan;101458.53;5010054;28;20272;-68
2023/03/04 09:57:59;;;;;;;19.92;9.20;;;5.60;99.90;;;5.48;nan;101441.03;5010106;28;20639;-66
2023/03/04 10:00:41;;;;;;;22.92;9.90;;;5.60;99.90;;;5.54;nan;101450.34;4988563;28;20203;-68
2023/03/04 10:03:12;;;;;;;28.63;12.15;;;5.70;99.90;;;5.52;nan;101445.19;5005449;28;20246;-65
2023/03/04 10:06:06;;;;;;;23.27;9.60;;;5.70;99.90;;;5.58;nan;101450.13;5005598;28;20199;-63
2023/03/04 10:09:08;;;;;;;24.45;10.07;;;5.70;99.90;;;5.62;nan;101451.72;4980457;28;20788;-65
2023/03/04 10:12:01;;;;;;;9.23;4.82;;;5.80;99.90;;;5.67;nan;101457.53;4992841;28;20226;-66
2023/03/04 10:14:43;;;;;;;19.15;9.10;;;5.80;99.90;;;5.70;nan;101451.41;5006815;28;20264;-66
2023/03/04 10:17:18;;;;;;;21.50;8.15;;;5.80;99.90;;;5.72;nan;101460.81;5007770;28;20730;-65
2023/03/04 10:19:50;;;;;;;18.77;9.45;;;5.90;99.90;;;5.77;nan;101463.22;4990129;28;20207;-66
2023/03/04 10:22:43;;;;;;;29.55;12.63;;;5.90;99.90;;;5.80;nan;101461.34;5007193;28;20242;-66
2023/03/04 10:25:28;;;;;;;11.15;6.38;;;5.90;99.90;;;5.85;nan;101453.44;4993348;28;20221;-67
2023/03/04 10:28:01;;;;;;;32.33;13.45;;;6.00;99.90;;;5.83;nan;101455.22;5010204;28;20288;-66
2023/03/04 10:30:31;;;;;;;15.48;7.22;;;6.00;99.90;;;5.84;nan;101455.19;4990499;28;20632;-64
2023/03/04 10:32:58;;;;;;;17.95;8.57;;;6.00;99.90;;;5.89;nan;101453.25;5011895;28;20230;-68
2023/03/04 10:35:32;;;;;;;30.58;12.80;;;6.00;99.90;;;5.99;nan;101454.56;5008919;28;20302;-68
2023/03/04 10:38:02;;;;;;;31.60;12.27;;;6.10;99.90;;;6.04;nan;101450.06;4991445;28;20667;-64
2023/03/04 10:40:38;;;;;;;21.05;9.57;;;6.10;99.90;;;6.08;nan;101443.84;5009192;28;20205;-65